sensor_id;sensor_type;location;lat;lon;timestamp;pressure;altitude;pressure_sealevel;temperature;humidity
75933;BME280;64803;52.356;5.310;2022-11-20T00:01:20;101819.22;;;-4.34;96.10
75933;BME280;64803;52.356;5.310;2022-11-20T00:03:47;101583.06;;;-5.78;96.22
75933;BME280;64803;52.356;5.310;2022-11-20T00:06:15;101627.56;;;-5.56;96.17
75933;BME280;64803;52.356;5.310;2022-11-20T00:08:43;101805.78;;;-4.48;96.13
75933;BME280;64803;52.356;5.310;2022-11-20T00:13:38;101638.59;;;-5.48;96.70
75933;BME280;64803;52.356;5.310;2022-11-20T00:16:05;101481.50;;;-6.33;95.84
75933;BME280;64803;52.356;5.310;2022-11-20T00:18:33;101740.00;;;-4.86;96.06
75933;BME280;64803;52.356;5.310;2022-11-20T00:21:07;101809.44;;;-4.52;96.51
75933;BME280;64803;52.356;5.310;2022-11-20T00:23:33;101810.50;;;-4.58;96.06
75933;BME280;64803;52.356;5.310;2022-11-20T00:26:05;101807.59;;;-4.50;96.94
75933;BME280;64803;52.356;5.310;2022-11-20T00:28:32;101802.22;;;-4.47;97.38
75933;BME280;64803;52.356;5.310;2022-11-20T00:31:07;101797.25;;;-4.53;97.51
75933;BME280;64803;52.356;5.310;2022-11-20T00:33:34;101721.53;;;-5.04;98.74
75933;BME280;64803;52.356;5.310;2022-11-20T00:36:21;101643.28;;;-5.56;97.80
75933;BME280;64803;52.356;5.310;2022-11-20T00:38:51;101536.63;;;-6.41;99.34
75933;BME280;64803;52.356;5.310;2022-11-20T00:41:17;101811.31;;;-4.56;99.83
75933;BME280;64803;52.356;5.310;2022-11-20T00:43:43;101624.16;;;-5.58;99.21
75933;BME280;64803;52.356;5.310;2022-11-20T00:46:19;101493.16;;;-6.42;100.00
75933;BME280;64803;52.356;5.310;2022-11-20T00:48:45;101494.91;;;-6.19;100.00
75933;BME280;64803;52.356;5.310;2022-11-20T00:51:17;101802.84;;;-4.41;99.99
75933;BME280;64803;52.356;5.310;2022-11-20T00:53:45;101790.78;;;-4.45;98.15
75933;BME280;64803;52.356;5.310;2022-11-20T00:56:16;101720.53;;;-5.02;97.35
75933;BME280;64803;52.356;5.310;2022-11-20T00:58:48;101789.16;;;-4.71;97.22
75933;BME280;64803;52.356;5.310;2022-11-20T01:01:25;101780.88;;;-4.82;97.27
75933;BME280;64803;52.356;5.310;2022-11-20T01:03:55;101778.41;;;-4.86;98.34
75933;BME280;64803;52.356;5.310;2022-11-20T01:06:33;101650.47;;;-5.63;98.61
75933;BME280;64803;52.356;5.310;2022-11-20T01:09:02;101664.94;;;-5.53;98.60
75933;BME280;64803;52.356;5.310;2022-11-20T01:11:31;101775.03;;;-4.88;98.38
75933;BME280;64803;52.356;5.310;2022-11-20T01:13:58;101767.22;;;-4.90;97.92
75933;BME280;64803;52.356;5.310;2022-11-20T01:16:27;101629.22;;;-5.77;97.46
75933;BME280;64803;52.356;5.310;2022-11-20T01:18:57;101762.97;;;-4.92;97.65
75933;BME280;64803;52.356;5.310;2022-11-20T01:21:44;101667.28;;;-5.68;98.46
75933;BME280;64803;52.356;5.310;2022-11-20T01:24:12;101770.00;;;-4.94;98.78
75933;BME280;64803;52.356;5.310;2022-11-20T01:26:40;101674.22;;;-5.44;98.65
75933;BME280;64803;52.356;5.310;2022-11-20T01:29:23;101752.63;;;-4.97;98.77
75933;BME280;64803;52.356;5.310;2022-11-20T01:31:50;101629.66;;;-5.66;98.68
75933;BME280;64803;52.356;5.310;2022-11-20T01:34:21;101618.41;;;-5.68;98.19
75933;BME280;64803;52.356;5.310;2022-11-20T01:36:48;101751.69;;;-4.94;98.13
75933;BME280;64803;52.356;5.310;2022-11-20T01:39:23;101746.56;;;-4.97;98.17
75933;BME280;64803;52.356;5.310;2022-11-20T01:41:53;101740.28;;;-4.93;98.18
75933;BME280;64803;52.356;5.310;2022-11-20T01:47:16;101620.09;;;-5.89;98.46
75933;BME280;64803;52.356;5.310;2022-11-20T01:50:15;101706.22;;;-5.38;98.81
75933;BME280;64803;52.356;5.310;2022-11-20T01:52:50;101519.22;;;-6.65;98.07
75933;BME280;64803;52.356;5.310;2022-11-20T01:55:23;101596.75;;;-6.18;98.66
75933;BME280;64803;52.356;5.310;2022-11-20T01:57:56;101739.28;;;-5.12;99.20
75933;BME280;64803;52.356;5.310;2022-11-20T02:00:23;101647.34;;;-5.72;98.02
75933;BME280;64803;52.356;5.310;2022-11-20T02:03:06;101737.56;;;-5.13;96.88
75933;BME280;64803;52.356;5.310;2022-11-20T02:05:49;101635.41;;;-5.80;97.23
75933;BME280;64803;52.356;5.310;2022-11-20T02:08:19;101549.44;;;-6.33;97.73
75933;BME280;64803;52.356;5.310;2022-11-20T02:10:45;101432.13;;;-7.12;97.16
75933;BME280;64803;52.356;5.310;2022-11-20T02:13:11;101533.66;;;-6.55;97.20
75933;BME280;64803;52.356;5.310;2022-11-20T02:15:57;101543.97;;;-6.52;97.50
75933;BME280;64803;52.356;5.310;2022-11-20T02:18:23;101579.72;;;-6.28;97.22
75933;BME280;64803;52.356;5.310;2022-11-20T02:20:53;101729.84;;;-5.39;97.75
75933;BME280;64803;52.356;5.310;2022-11-20T02:23:34;101720.22;;;-5.39;97.74
75933;BME280;64803;52.356;5.310;2022-11-20T02:26:03;101354.06;;;-7.67;98.54
75933;BME280;64803;52.356;5.310;2022-11-20T02:28:31;101678.06;;;-5.78;99.08
75933;BME280;64803;52.356;5.310;2022-11-20T02:30:57;101324.56;;;-7.93;98.44
75933;BME280;64803;52.356;5.310;2022-11-20T02:33:23;101756.22;;;-5.45;98.75
75933;BME280;64803;52.356;5.310;2022-11-20T02:35:49;101571.56;;;-6.43;98.35
75933;BME280;64803;52.356;5.310;2022-11-20T02:38:15;101729.84;;;-5.39;99.71
75933;BME280;64803;52.356;5.310;2022-11-20T02:40:42;101726.72;;;-5.26;100.00
75933;BME280;64803;52.356;5.310;2022-11-20T02:43:09;101722.22;;;-5.22;98.81
75933;BME280;64803;52.356;5.310;2022-11-20T02:45:36;101587.00;;;-6.13;98.80
75933;BME280;64803;52.356;5.310;2022-11-20T02:48:02;101571.38;;;-6.14;98.63
75933;BME280;64803;52.356;5.310;2022-11-20T02:50:28;101696.94;;;-5.46;98.75
75933;BME280;64803;52.356;5.310;2022-11-20T02:52:54;101680.81;;;-5.34;99.18
75933;BME280;64803;52.356;5.310;2022-11-20T02:55:22;101680.22;;;-5.65;98.18
75933;BME280;64803;52.356;5.310;2022-11-20T02:57:48;101606.22;;;-5.91;97.19
75933;BME280;64803;52.356;5.310;2022-11-20T03:00:15;101598.13;;;-6.08;96.88
75933;BME280;64803;52.356;5.310;2022-11-20T03:02:46;101717.03;;;-5.47;97.85
75933;BME280;64803;52.356;5.310;2022-11-20T03:05:12;101544.75;;;-6.73;97.03
75933;BME280;64803;52.356;5.310;2022-11-20T03:07:38;101636.09;;;-5.98;97.27
75933;BME280;64803;52.356;5.310;2022-11-20T03:10:05;101707.41;;;-5.46;98.73
75933;BME280;64803;52.356;5.310;2022-11-20T03:12:31;101702.81;;;-5.40;98.70
75933;BME280;64803;52.356;5.310;2022-11-20T03:14:57;101706.22;;;-5.38;97.63
75933;BME280;64803;52.356;5.310;2022-11-20T03:17:24;101533.97;;;-6.39;97.26
75933;BME280;64803;52.356;5.310;2022-11-20T03:19:49;101692.19;;;-5.35;97.47
75933;BME280;64803;52.356;5.310;2022-11-20T03:22:15;101412.53;;;-7.23;96.76
75933;BME280;64803;52.356;5.310;2022-11-20T03:24:41;101616.31;;;-5.82;97.57
75933;BME280;64803;52.356;5.310;2022-11-20T03:27:08;101455.44;;;-6.82;96.31
75933;BME280;64803;52.356;5.310;2022-11-20T03:29:35;101586.44;;;-6.21;97.31
75933;BME280;64803;52.356;5.310;2022-11-20T03:32:01;101593.47;;;-6.23;97.51
75933;BME280;64803;52.356;5.310;2022-11-20T03:34:27;101562.44;;;-6.32;97.86
75933;BME280;64803;52.356;5.310;2022-11-20T03:36:53;101707.00;;;-5.59;98.31
75933;BME280;64803;52.356;5.310;2022-11-20T03:39:19;101487.09;;;-6.67;99.26
75933;BME280;64803;52.356;5.310;2022-11-20T03:41:45;101676.28;;;-5.54;98.68
75933;BME280;64803;52.356;5.310;2022-11-20T03:44:11;101527.16;;;-6.43;97.66
75933;BME280;64803;52.356;5.310;2022-11-20T03:46:38;101669.38;;;-5.55;96.52
75933;BME280;64803;52.356;5.310;2022-11-20T03:49:04;101594.50;;;-6.04;96.73
75933;BME280;64803;52.356;5.310;2022-11-20T03:51:32;101658.84;;;-5.53;97.33
75933;BME280;64803;52.356;5.310;2022-11-20T03:54:00;101661.34;;;-5.50;97.77
75933;BME280;64803;52.356;5.310;2022-11-20T03:56:30;101548.06;;;-6.20;97.53
75933;BME280;64803;52.356;5.310;2022-11-20T03:58:57;101701.56;;;-5.53;98.71
75933;BME280;64803;52.356;5.310;2022-11-20T04:01:29;101664.09;;;-5.53;98.09
75933;BME280;64803;52.356;5.310;2022-11-20T04:03:57;101659.78;;;-5.54;98.07
75933;BME280;64803;52.356;5.310;2022-11-20T04:06:26;101668.44;;;-5.54;97.56
75933;BME280;64803;52.356;5.310;2022-11-20T04:08:58;101544.63;;;-6.21;97.30
75933;BME280;64803;52.356;5.310;2022-11-20T04:11:26;101467.25;;;-6.72;96.63
75933;BME280;64803;52.356;5.310;2022-11-20T04:13:58;101652.34;;;-5.66;96.74
75933;BME280;64803;52.356;5.310;2022-11-20T04:16:26;101645.53;;;-5.70;97.68
75933;BME280;64803;52.356;5.310;2022-11-20T04:18:56;101540.63;;;-6.31;96.52
75933;BME280;64803;52.356;5.310;2022-11-20T04:21:23;101372.28;;;-7.41;96.47
75933;BME280;64803;52.356;5.310;2022-11-20T04:23:50;101640.41;;;-5.74;96.55
75933;BME280;64803;52.356;5.310;2022-11-20T04:26:19;101515.44;;;-6.56;96.75
75933;BME280;64803;52.356;5.310;2022-11-20T04:28:45;101643.94;;;-5.75;96.22
75933;BME280;64803;52.356;5.310;2022-11-20T04:31:16;101664.75;;;-5.72;96.45
75933;BME280;64803;52.356;5.310;2022-11-20T04:33:44;101654.19;;;-5.68;97.13
75933;BME280;64803;52.356;5.310;2022-11-20T04:36:18;101579.97;;;-6.11;96.96
75933;BME280;64803;52.356;5.310;2022-11-20T04:38:45;101315.38;;;-7.79;96.65
75933;BME280;64803;52.356;5.310;2022-11-20T04:41:16;101486.13;;;-6.89;97.27
75933;BME280;64803;52.356;5.310;2022-11-20T04:43:50;101544.16;;;-6.32;97.85
75933;BME280;64803;52.356;5.310;2022-11-20T04:46:20;101642.63;;;-5.63;97.94
75933;BME280;64803;52.356;5.310;2022-11-20T04:48:47;101496.78;;;-6.46;98.17
75933;BME280;64803;52.356;5.310;2022-11-20T04:51:14;101632.81;;;-5.56;97.38
75933;BME280;64803;52.356;5.310;2022-11-20T04:53:40;101549.03;;;-6.00;97.45
75933;BME280;64803;52.356;5.310;2022-11-20T04:56:08;101624.91;;;-5.33;100.00
75933;BME280;64803;52.356;5.310;2022-11-20T04:58:34;101620.94;;;-5.20;100.00
75933;BME280;64803;52.356;5.310;2022-11-20T05:01:03;101646.50;;;-5.05;100.00
75933;BME280;64803;52.356;5.310;2022-11-20T05:03:30;101617.28;;;-4.95;100.00
75933;BME280;64803;52.356;5.310;2022-11-20T05:05:59;101399.84;;;-6.38;99.24
75933;BME280;64803;52.356;5.310;2022-11-20T05:08:25;101474.75;;;-6.16;98.11
75933;BME280;64803;52.356;5.310;2022-11-20T05:10:51;101609.66;;;-5.22;98.62
75933;BME280;64803;52.356;5.310;2022-11-20T05:13:19;101474.44;;;-6.08;98.30
75933;BME280;64803;52.356;5.310;2022-11-20T05:15:45;101356.88;;;-6.76;98.10
75933;BME280;64803;52.356;5.310;2022-11-20T05:18:11;101422.72;;;-6.45;98.21
75933;BME280;64803;52.356;5.310;2022-11-20T05:20:37;101569.78;;;-5.74;98.01
75933;BME280;64803;52.356;5.310;2022-11-20T05:23:03;101648.88;;;-5.44;97.93
75933;BME280;64803;52.356;5.310;2022-11-20T05:25:29;101327.91;;;-7.39;97.39
75933;BME280;64803;52.356;5.310;2022-11-20T05:27:56;101092.81;;;-8.69;97.69
75933;BME280;64803;52.356;5.310;2022-11-20T05:30:22;101616.19;;;-5.55;98.66
75933;BME280;64803;52.356;5.310;2022-11-20T05:32:48;101116.72;;;-8.58;97.68
75933;BME280;64803;52.356;5.310;2022-11-20T05:35:14;101594.13;;;-5.48;98.54
75933;BME280;64803;52.356;5.310;2022-11-20T05:37:40;101507.22;;;-6.00;97.82
75933;BME280;64803;52.356;5.310;2022-11-20T05:40:07;101598.50;;;-5.49;97.79
75933;BME280;64803;52.356;5.310;2022-11-20T05:42:33;101582.75;;;-5.47;98.02
75933;BME280;64803;52.356;5.310;2022-11-20T05:45:00;101514.97;;;-5.97;97.91
75933;BME280;64803;52.356;5.310;2022-11-20T05:47:28;101537.00;;;-6.04;97.84
75933;BME280;64803;52.356;5.310;2022-11-20T05:49:56;101612.34;;;-5.68;98.53
75933;BME280;64803;52.356;5.310;2022-11-20T05:52:22;101448.16;;;-6.73;98.73
75933;BME280;64803;52.356;5.310;2022-11-20T05:54:48;101636.78;;;-5.69;98.74
75933;BME280;64803;52.356;5.310;2022-11-20T05:57:14;101459.28;;;-6.68;98.41
75933;BME280;64803;52.356;5.310;2022-11-20T05:59:40;101546.84;;;-6.10;97.92
75933;BME280;64803;52.356;5.310;2022-11-20T06:02:09;101408.16;;;-6.98;97.75
75933;BME280;64803;52.356;5.310;2022-11-20T06:04:35;101559.16;;;-6.14;97.98
75933;BME280;64803;52.356;5.310;2022-11-20T06:07:01;101550.63;;;-6.19;98.15
75933;BME280;64803;52.356;5.310;2022-11-20T06:09:27;101629.47;;;-5.83;97.42
75933;BME280;64803;52.356;5.310;2022-11-20T06:11:54;101614.97;;;-5.92;96.82
75933;BME280;64803;52.356;5.310;2022-11-20T06:14:20;101622.75;;;-5.90;98.90
75933;BME280;64803;52.356;5.310;2022-11-20T06:16:46;101490.94;;;-6.77;98.75
75933;BME280;64803;52.356;5.310;2022-11-20T06:19:13;101619.97;;;-5.86;98.72
75933;BME280;64803;52.356;5.310;2022-11-20T06:21:40;101555.28;;;-6.27;97.01
75933;BME280;64803;52.356;5.310;2022-11-20T06:24:09;101482.97;;;-6.74;97.97
75933;BME280;64803;52.356;5.310;2022-11-20T06:26:35;101620.09;;;-5.89;97.68
75933;BME280;64803;52.356;5.310;2022-11-20T06:29:00;101578.53;;;-6.19;98.59
75933;BME280;64803;52.356;5.310;2022-11-20T06:31:27;101621.53;;;-5.82;99.01
75933;BME280;64803;52.356;5.310;2022-11-20T06:34:06;101299.66;;;-7.76;98.86
75933;BME280;64803;52.356;5.310;2022-11-20T06:36:33;101614.25;;;-5.74;99.17
75933;BME280;64803;52.356;5.310;2022-11-20T06:39:00;101533.13;;;-6.17;98.15
75933;BME280;64803;52.356;5.310;2022-11-20T06:41:27;101377.06;;;-7.04;98.66
75933;BME280;64803;52.356;5.310;2022-11-20T06:43:53;101419.75;;;-6.82;98.51
75933;BME280;64803;52.356;5.310;2022-11-20T06:46:20;101258.91;;;-7.78;98.37
75933;BME280;64803;52.356;5.310;2022-11-20T06:48:47;101647.59;;;-5.55;99.11
75933;BME280;64803;52.356;5.310;2022-11-20T06:51:13;101484.38;;;-6.41;99.20
75933;BME280;64803;52.356;5.310;2022-11-20T06:53:39;101545.41;;;-5.96;97.98
75933;BME280;64803;52.356;5.310;2022-11-20T06:56:06;101614.31;;;-5.52;98.49
75933;BME280;64803;52.356;5.310;2022-11-20T06:58:34;101644.75;;;-5.49;98.99
75933;BME280;64803;52.356;5.310;2022-11-20T07:01:05;101475.03;;;-6.23;97.70
75933;BME280;64803;52.356;5.310;2022-11-20T07:03:31;101594.56;;;-5.37;99.63
75933;BME280;64803;52.356;5.310;2022-11-20T07:05:58;101636.09;;;-5.28;98.47
75933;BME280;64803;52.356;5.310;2022-11-20T07:08:25;101532.03;;;-5.66;97.73
75933;BME280;64803;52.356;5.310;2022-11-20T07:10:58;101538.50;;;-5.53;98.58
75933;BME280;64803;52.356;5.310;2022-11-20T07:13:26;101312.34;;;-6.95;98.74
75933;BME280;64803;52.356;5.310;2022-11-20T07:15:52;101597.81;;;-5.09;98.24
75933;BME280;64803;52.356;5.310;2022-11-20T07:18:23;101317.66;;;-6.74;98.00
75933;BME280;64803;52.356;5.310;2022-11-20T07:20:49;101452.78;;;-5.89;97.85
75933;BME280;64803;52.356;5.310;2022-11-20T07:23:15;101540.72;;;-5.43;97.37
75933;BME280;64803;52.356;5.310;2022-11-20T07:25:41;101378.88;;;-6.37;97.29
75933;BME280;64803;52.356;5.310;2022-11-20T07:28:07;101370.56;;;-6.25;97.45
75933;BME280;64803;52.356;5.310;2022-11-20T07:30:33;101418.34;;;-6.00;97.38
75933;BME280;64803;52.356;5.310;2022-11-20T07:32:59;101586.06;;;-4.99;97.79
75933;BME280;64803;52.356;5.310;2022-11-20T07:35:25;101264.81;;;-7.03;96.82
75933;BME280;64803;52.356;5.310;2022-11-20T09:13:55;101435.34;;;-1.90;96.16
75933;BME280;64803;52.356;5.310;2022-11-20T09:16:21;101343.47;;;-2.40;95.41
75933;BME280;64803;52.356;5.310;2022-11-20T09:18:49;101511.78;;;-1.29;95.76
75933;BME280;64803;52.356;5.310;2022-11-20T09:21:16;101477.28;;;-1.40;95.40
75933;BME280;64803;52.356;5.310;2022-11-20T09:23:41;101510.06;;;-1.15;94.83
75933;BME280;64803;52.356;5.310;2022-11-20T09:26:12;101505.53;;;-1.13;94.72
75933;BME280;64803;52.356;5.310;2022-11-20T09:28:39;101475.41;;;-1.23;94.70
75933;BME280;64803;52.356;5.310;2022-11-20T09:31:13;101351.69;;;-1.83;94.55
75933;BME280;64803;52.356;5.310;2022-11-20T09:33:43;101450.22;;;-1.13;94.20
75933;BME280;64803;52.356;5.310;2022-11-20T09:36:09;101438.34;;;-1.20;93.20
75933;BME280;64803;52.356;5.310;2022-11-20T09:38:35;101498.88;;;-0.74;93.12
75933;BME280;64803;52.356;5.310;2022-11-20T09:41:05;101467.97;;;-0.86;93.74
75933;BME280;64803;52.356;5.310;2022-11-20T09:46:29;101454.63;;;-0.69;93.40
75933;BME280;64803;52.356;5.310;2022-11-20T09:52:00;101443.94;;;-0.66;93.80
75933;BME280;64803;52.356;5.310;2022-11-20T09:54:33;101442.97;;;-0.65;92.88
75933;BME280;64803;52.356;5.310;2022-11-20T09:57:04;101443.34;;;-0.57;92.91
75933;BME280;64803;52.356;5.310;2022-11-20T09:59:46;101427.25;;;-0.67;92.90
75933;BME280;64803;52.356;5.310;2022-11-20T10:02:30;101336.91;;;-1.13;93.84
75933;BME280;64803;52.356;5.310;2022-11-20T10:11:04;101445.53;;;-0.22;91.53
75933;BME280;64803;52.356;5.310;2022-11-20T10:28:08;101446.41;;;0.20;91.93
75933;BME280;64803;52.356;5.310;2022-11-20T10:30:42;101442.75;;;0.22;91.89
75933;BME280;64803;52.356;5.310;2022-11-20T10:33:17;101435.16;;;0.30;91.28
75933;BME280;64803;52.356;5.310;2022-11-20T10:35:59;101304.78;;;-0.49;91.06
75933;BME280;64803;52.356;5.310;2022-11-20T10:38:35;101424.97;;;0.38;90.80
75933;BME280;64803;52.356;5.310;2022-11-20T10:41:03;101366.09;;;0.10;91.64
75933;BME280;64803;52.356;5.310;2022-11-20T10:44:05;101350.03;;;0.00;90.77
75933;BME280;64803;52.356;5.310;2022-11-20T10:46:45;101351.13;;;0.10;91.33
75933;BME280;64803;52.356;5.310;2022-11-20T10:49:18;101278.09;;;-0.30;92.04
75933;BME280;64803;52.356;5.310;2022-11-20T10:54:38;101396.53;;;0.68;91.75
75933;BME280;64803;52.356;5.310;2022-11-20T11:00:12;101388.22;;;0.87;91.32
75933;BME280;64803;52.356;5.310;2022-11-20T11:02:43;101384.53;;;0.89;91.69
75933;BME280;64803;52.356;5.310;2022-11-20T11:05:18;101367.81;;;0.76;91.26
75933;BME280;64803;52.356;5.310;2022-11-20T11:07:49;101360.19;;;0.84;90.93
75933;BME280;64803;52.356;5.310;2022-11-20T11:10:19;101251.66;;;0.23;90.26
75933;BME280;64803;52.356;5.310;2022-11-20T11:12:47;101233.69;;;0.03;91.35
75933;BME280;64803;52.356;5.310;2022-11-20T11:15:39;101366.34;;;0.85;91.64
75933;BME280;64803;52.356;5.310;2022-11-20T11:18:08;101368.03;;;0.86;91.71
75933;BME280;64803;52.356;5.310;2022-11-20T11:20:35;101207.66;;;-0.03;91.06
75933;BME280;64803;52.356;5.310;2022-11-20T11:23:02;101230.75;;;0.20;91.80
75933;BME280;64803;52.356;5.310;2022-11-20T11:25:30;101350.16;;;1.02;91.59
75933;BME280;64803;52.356;5.310;2022-11-20T11:28:02;101348.16;;;1.05;92.61
75933;BME280;64803;52.356;5.310;2022-11-20T11:30:41;101247.38;;;0.47;92.47
75933;BME280;64803;52.356;5.310;2022-11-20T11:33:11;101220.75;;;0.38;92.01
75933;BME280;64803;52.356;5.310;2022-11-20T11:35:59;101291.06;;;0.78;92.10
75933;BME280;64803;52.356;5.310;2022-11-20T11:38:34;101329.31;;;1.10;92.23
75933;BME280;64803;52.356;5.310;2022-11-20T11:41:02;101290.09;;;0.91;93.43
75933;BME280;64803;52.356;5.310;2022-11-20T11:43:30;101324.03;;;1.23;93.02
75933;BME280;64803;52.356;5.310;2022-11-20T11:46:26;101316.84;;;1.25;93.55
75933;BME280;64803;52.356;5.310;2022-11-20T11:49:16;101169.19;;;0.45;92.87
75933;BME280;64803;52.356;5.310;2022-11-20T11:54:16;101308.50;;;1.31;93.27
75933;BME280;64803;52.356;5.310;2022-11-20T11:56:45;101198.44;;;0.67;93.50
75933;BME280;64803;52.356;5.310;2022-11-20T11:59:17;101141.00;;;0.45;94.02
75933;BME280;64803;52.356;5.310;2022-11-20T12:01:54;101292.91;;;1.39;94.01
75933;BME280;64803;52.356;5.310;2022-11-20T12:04:40;101198.31;;;0.93;94.17
75933;BME280;64803;52.356;5.310;2022-11-20T12:07:12;101267.41;;;1.38;93.52
75933;BME280;64803;52.356;5.310;2022-11-20T12:09:48;101258.44;;;1.28;94.67
75933;BME280;64803;52.356;5.310;2022-11-20T12:12:23;101258.41;;;1.40;95.12
75933;BME280;64803;52.356;5.310;2022-11-20T12:14:53;101217.06;;;1.27;95.07
75933;BME280;64803;52.356;5.310;2022-11-20T12:17:20;101255.00;;;1.51;95.49
75933;BME280;64803;52.356;5.310;2022-11-20T12:19:46;101230.38;;;1.38;95.64
75933;BME280;64803;52.356;5.310;2022-11-20T12:25:30;101255.81;;;1.64;97.07
75933;BME280;64803;52.356;5.310;2022-11-20T12:30:26;101258.97;;;1.69;96.45
75933;BME280;64803;52.356;5.310;2022-11-20T12:33:24;101246.34;;;1.72;96.16
75933;BME280;64803;52.356;5.310;2022-11-20T12:39:16;101224.97;;;1.63;96.74
75933;BME280;64803;52.356;5.310;2022-11-20T12:45:26;101215.13;;;1.65;97.88
75933;BME280;64803;52.356;5.310;2022-11-20T12:48:08;101196.78;;;1.51;97.33
75933;BME280;64803;52.356;5.310;2022-11-20T12:51:02;101210.06;;;1.62;97.95
75933;BME280;64803;52.356;5.310;2022-11-20T12:56:44;101205.59;;;1.62;98.46
75933;BME280;64803;52.356;5.310;2022-11-20T12:59:34;101137.56;;;1.41;98.25
75933;BME280;64803;52.356;5.310;2022-11-20T13:02:23;101012.84;;;0.63;98.58
75933;BME280;64803;52.356;5.310;2022-11-20T13:07:53;101145.31;;;1.55;98.96
75933;BME280;64803;52.356;5.310;2022-11-20T13:10:36;101161.28;;;1.77;98.51
75933;BME280;64803;52.356;5.310;2022-11-20T13:13:14;101133.25;;;1.74;98.73
75933;BME280;64803;52.356;5.310;2022-11-20T13:15:55;101143.75;;;1.87;98.59
75933;BME280;64803;52.356;5.310;2022-11-20T13:18:24;101143.50;;;1.79;98.36
75933;BME280;64803;52.356;5.310;2022-11-20T13:20:50;101061.28;;;1.35;98.15
75933;BME280;64803;52.356;5.310;2022-11-20T13:23:25;101137.00;;;1.83;98.77
75933;BME280;64803;52.356;5.310;2022-11-20T13:26:03;101137.13;;;1.81;98.32
75933;BME280;64803;52.356;5.310;2022-11-20T13:28:30;101091.94;;;1.61;98.06
75933;BME280;64803;52.356;5.310;2022-11-20T13:30:58;101058.31;;;1.50;98.88
75933;BME280;64803;52.356;5.310;2022-11-20T13:33:30;101109.56;;;1.84;99.31
75933;BME280;64803;52.356;5.310;2022-11-20T13:38:41;101099.03;;;1.95;99.02
75933;BME280;64803;52.356;5.310;2022-11-20T13:41:08;101084.88;;;1.83;98.69
75933;BME280;64803;52.356;5.310;2022-11-20T13:43:57;101110.34;;;1.97;98.93
75933;BME280;64803;52.356;5.310;2022-11-20T13:46:44;101096.50;;;2.04;99.13
75933;BME280;64803;52.356;5.310;2022-11-20T13:49:34;101100.13;;;2.03;99.22
75933;BME280;64803;52.356;5.310;2022-11-20T13:57:49;101084.31;;;1.91;98.81
75933;BME280;64803;52.356;5.310;2022-11-20T14:00:21;101088.66;;;2.03;99.01
75933;BME280;64803;52.356;5.310;2022-11-20T14:05:40;100977.16;;;1.51;98.72
75933;BME280;64803;52.356;5.310;2022-11-20T14:08:23;101034.97;;;1.90;99.43
75933;BME280;64803;52.356;5.310;2022-11-20T14:10:50;101018.81;;;1.82;99.60
75933;BME280;64803;52.356;5.310;2022-11-20T14:13:20;101042.31;;;1.97;99.40
75933;BME280;64803;52.356;5.310;2022-11-20T14:15:46;100991.75;;;1.67;99.26
75933;BME280;64803;52.356;5.310;2022-11-20T14:18:18;101048.59;;;2.07;99.19
75933;BME280;64803;52.356;5.310;2022-11-20T14:20:45;101056.66;;;2.06;99.53
75933;BME280;64803;52.356;5.310;2022-11-20T14:23:12;101056.44;;;2.09;100.00
75933;BME280;64803;52.356;5.310;2022-11-20T14:25:42;101032.31;;;2.01;99.79
75933;BME280;64803;52.356;5.310;2022-11-20T14:28:25;101042.47;;;2.07;100.00
75933;BME280;64803;52.356;5.310;2022-11-20T14:30:51;100918.44;;;1.35;99.93
75933;BME280;64803;52.356;5.310;2022-11-20T14:33:19;101026.94;;;2.13;100.00
75933;BME280;64803;52.356;5.310;2022-11-20T14:35:47;100995.75;;;1.95;99.45
75933;BME280;64803;52.356;5.310;2022-11-20T14:38:16;101019.09;;;2.12;100.00
75933;BME280;64803;52.356;5.310;2022-11-20T14:40:44;100963.84;;;1.85;100.00
75933;BME280;64803;52.356;5.310;2022-11-20T14:43:22;101018.84;;;2.15;100.00
75933;BME280;64803;52.356;5.310;2022-11-20T14:45:55;101002.22;;;2.13;99.87
75933;BME280;64803;52.356;5.310;2022-11-20T14:48:24;100998.28;;;2.07;99.83
75933;BME280;64803;52.356;5.310;2022-11-20T14:50:51;100951.56;;;1.84;100.00
75933;BME280;64803;52.356;5.310;2022-11-20T14:53:22;100981.06;;;2.02;100.00
75933;BME280;64803;52.356;5.310;2022-11-20T14:55:56;100948.78;;;1.75;100.00
75933;BME280;64803;52.356;5.310;2022-11-20T14:58:24;100988.75;;;1.94;100.00
75933;BME280;64803;52.356;5.310;2022-11-20T15:01:02;100980.06;;;1.92;100.00
75933;BME280;64803;52.356;5.310;2022-11-20T15:03:34;100848.91;;;1.10;100.00
75933;BME280;64803;52.356;5.310;2022-11-20T15:06:01;100847.00;;;1.12;100.00
75933;BME280;64803;52.356;5.310;2022-11-20T15:08:27;100932.69;;;1.67;100.00
75933;BME280;64803;52.356;5.310;2022-11-20T15:10:54;100967.56;;;1.94;100.00
75933;BME280;64803;52.356;5.310;2022-11-20T15:13:36;100960.59;;;1.93;100.00
75933;BME280;64803;52.356;5.310;2022-11-20T15:16:17;100826.91;;;1.10;100.00
75933;BME280;64803;52.356;5.310;2022-11-20T15:18:43;100966.16;;;1.90;100.00
75933;BME280;64803;52.356;5.310;2022-11-20T15:21:12;100961.66;;;1.90;100.00
75933;BME280;64803;52.356;5.310;2022-11-20T15:23:38;100974.78;;;1.92;100.00
75933;BME280;64803;52.356;5.310;2022-11-20T15:26:05;100965.41;;;1.88;100.00
75933;BME280;64803;52.356;5.310;2022-11-20T15:28:34;100955.78;;;1.87;100.00
75933;BME280;64803;52.356;5.310;2022-11-20T15:31:01;100892.84;;;1.46;100.00
75933;BME280;64803;52.356;5.310;2022-11-20T15:33:29;100886.72;;;1.46;100.00
75933;BME280;64803;52.356;5.310;2022-11-20T15:35:55;100955.78;;;1.87;100.00
75933;BME280;64803;52.356;5.310;2022-11-20T15:38:21;100916.56;;;1.70;100.00
75933;BME280;64803;52.356;5.310;2022-11-20T15:40:47;100903.31;;;1.59;100.00
75933;BME280;64803;52.356;5.310;2022-11-20T15:43:13;100940.75;;;1.87;100.00
75933;BME280;64803;52.356;5.310;2022-11-20T15:45:42;100938.09;;;1.87;100.00
75933;BME280;64803;52.356;5.310;2022-11-20T15:48:14;100934.72;;;1.85;100.00
75933;BME280;64803;52.356;5.310;2022-11-20T15:50:50;100907.66;;;1.71;100.00
75933;BME280;64803;52.356;5.310;2022-11-20T15:53:18;100933.66;;;1.88;100.00
75933;BME280;64803;52.356;5.310;2022-11-20T15:55:44;100931.00;;;1.88;100.00